Time;durP1;ratioP1;P1;durP2;ratioP2;P2;SDS_P1;SDS_P2;PMS_P1;PMS_P2;Temp;Humidity;BMP_temperature;BMP_pressure;BME280_temperature;BME280_humidity;BME280_pressure;Samples;Min_cycle;Max_cycle;Signal;HPM_P1;HPM_P2
2021/12/11 00:00:28;;;;;;;9.23;7.67;;;-0.30;99.90;;;;;;4966708;28;20437;-70
2021/12/11 00:03:02;;;;;;;15.13;7.60;;;-0.30;99.90;;;;;;4975612;28;20556;-69
2021/12/11 00:05:30;;;;;;;5.03;4.53;;;-0.40;99.90;;;;;;4966447;28;20485;-71
2021/12/11 00:07:59;;;;;;;4.50;4.10;;;-0.30;99.90;;;;;;4956331;28;20541;-72
2021/12/11 00:10:30;;;;;;;9.33;5.93;;;-0.20;99.90;;;;;;4972907;28;20882;-70
2021/12/11 00:13:01;;;;;;;5.30;4.00;;;-0.20;99.90;;;;;;4972553;28;20487;-71
2021/12/11 00:15:34;;;;;;;12.03;5.73;;;-0.10;99.90;;;;;;4968010;28;20516;-71
2021/12/11 00:18:04;;;;;;;8.77;5.50;;;-0.20;99.90;;;;;;4967941;28;20458;-70
2021/12/11 00:20:38;;;;;;;13.73;11.57;;;-0.30;99.90;;;;;;4973795;28;20489;-71
2021/12/11 00:23:06;;;;;;;9.53;8.73;;;-0.30;99.90;;;;;;4965100;28;20452;-71
2021/12/11 00:25:42;;;;;;;7.90;4.93;;;-0.40;99.90;;;;;;4971664;28;20859;-71
2021/12/11 00:28:10;;;;;;;6.83;3.80;;;-0.40;99.90;;;;;;4962828;28;20499;-69
2021/12/11 00:30:40;;;;;;;9.73;6.63;;;-0.40;99.90;;;;;;4969688;28;20546;-71
2021/12/11 00:33:12;;;;;;;13.53;5.00;;;-0.40;99.90;;;;;;4972750;28;20535;-71
2021/12/11 00:35:40;;;;;;;8.60;5.93;;;-0.60;99.90;;;;;;4964853;28;20469;-70
2021/12/11 00:38:09;;;;;;;5.13;4.07;;;-0.50;99.90;;;;;;4969187;28;20518;-70
2021/12/11 00:40:39;;;;;;;10.47;6.20;;;-0.40;99.90;;;;;;4976346;28;20509;-70
2021/12/11 00:43:08;;;;;;;12.90;5.27;;;-0.30;99.90;;;;;;4974395;28;20467;-71
2021/12/11 00:45:39;;;;;;;5.53;5.00;;;-0.30;99.90;;;;;;4964547;28;20455;-70
2021/12/11 00:48:10;;;;;;;16.73;9.00;;;-0.40;99.90;;;;;;4970263;28;20865;-71
2021/12/11 00:50:41;;;;;;;7.70;7.00;;;-0.50;99.90;;;;;;4967640;28;20474;-70
2021/12/11 00:53:12;;;;;;;5.13;4.60;;;-0.60;99.90;;;;;;4969384;28;20483;-69
2021/12/11 00:55:44;;;;;;;7.57;6.83;;;-0.60;99.90;;;;;;4964414;28;20828;-68
2021/12/11 00:58:13;;;;;;;13.50;6.17;;;-0.60;99.90;;;;;;4963958;28;20932;-72
2021/12/11 01:00:45;;;;;;;6.93;6.23;;;-0.60;99.90;;;;;;4965457;28;20462;-70
2021/12/11 01:03:16;;;;;;;6.30;5.23;;;-0.60;99.90;;;;;;4961890;28;20932;-71
2021/12/11 01:05:47;;;;;;;7.40;5.87;;;-0.50;99.90;;;;;;4966450;28;20542;-69
2021/12/11 01:08:23;;;;;;;8.33;6.63;;;-0.60;99.90;;;;;;4966761;28;20665;-72
2021/12/11 01:10:54;;;;;;;15.80;5.40;;;-0.60;99.90;;;;;;4960549;28;20457;-72
2021/12/11 01:13:25;;;;;;;25.33;6.53;;;-0.60;99.90;;;;;;4962833;28;20440;-69
2021/12/11 01:15:58;;;;;;;8.10;6.47;;;-0.50;99.90;;;;;;4950454;28;20926;-70
2021/12/11 01:18:34;;;;;;;6.10;5.50;;;-0.50;99.90;;;;;;4964571;28;20433;-68
2021/12/11 01:21:14;;;;;;;8.33;6.83;;;-0.50;99.90;;;;;;4963031;28;20584;-70
2021/12/11 01:24:07;;;;;;;11.87;6.70;;;-0.60;99.90;;;;;;4968587;28;20494;-70
2021/12/11 01:26:40;;;;;;;9.20;8.40;;;-0.60;99.90;;;;;;4966496;28;20473;-69
2021/12/11 01:29:08;;;;;;;8.90;8.10;;;-0.50;99.90;;;;;;4971673;28;20460;-69
2021/12/11 01:31:35;;;;;;;12.37;8.47;;;-0.60;99.90;;;;;;4967996;28;20462;-69
2021/12/11 01:34:03;;;;;;;8.83;5.47;;;-0.60;99.90;;;;;;4968406;28;20874;-70
2021/12/11 01:36:30;;;;;;;13.97;7.53;;;-0.60;99.90;;;;;;4966732;28;20464;-72
2021/12/11 01:39:00;;;;;;;14.33;6.93;;;-0.70;99.90;;;;;;4956535;28;20445;-72
2021/12/11 01:41:28;;;;;;;11.93;7.10;;;-0.60;99.90;;;;;;4970884;28;20572;-73
2021/12/11 01:44:00;;;;;;;10.97;6.23;;;-0.50;99.90;;;;;;4958371;28;21039;-72
2021/12/11 01:46:28;;;;;;;5.40;4.90;;;-0.50;99.90;;;;;;4961042;28;20459;-72
2021/12/11 01:49:00;;;;;;;11.63;7.30;;;-0.60;99.90;;;;;;4954220;28;20653;-72
2021/12/11 01:51:32;;;;;;;6.67;6.07;;;-0.60;99.90;;;;;;4970406;28;21034;-71
2021/12/11 01:54:04;;;;;;;12.63;6.70;;;-0.60;99.90;;;;;;4956024;28;20874;-69
2021/12/11 01:56:32;;;;;;;5.93;5.43;;;-0.60;99.90;;;;;;4965772;28;20457;-69
2021/12/11 01:59:05;;;;;;;8.67;4.87;;;-0.50;99.90;;;;;;4968327;28;20449;-71
2021/12/11 02:01:37;;;;;;;7.20;5.03;;;-0.60;99.90;;;;;;4970192;28;20469;-70
2021/12/11 02:04:06;;;;;;;5.10;4.43;;;-0.70;99.90;;;;;;4968139;28;20453;-71
2021/12/11 02:06:37;;;;;;;11.37;5.70;;;-0.80;99.90;;;;;;4961285;28;20473;-68
2021/12/11 02:09:13;;;;;;;9.90;7.67;;;-0.80;99.90;;;;;;4971799;28;20494;-70
2021/12/11 02:11:40;;;;;;;11.13;8.23;;;-0.80;99.90;;;;;;4956164;28;20767;-70
2021/12/11 02:14:11;;;;;;;6.23;4.67;;;-0.70;99.90;;;;;;4965027;28;20543;-69
2021/12/11 02:16:43;;;;;;;10.13;6.30;;;-0.70;99.90;;;;;;4963439;28;20486;-70
2021/12/11 02:19:14;;;;;;;7.83;5.37;;;-0.80;99.90;;;;;;4966010;28;20457;-70
2021/12/11 02:21:50;;;;;;;4.90;4.50;;;-0.70;99.90;;;;;;4959770;28;20805;-70
2021/12/11 02:24:22;;;;;;;9.27;4.90;;;-0.70;99.90;;;;;;4966440;28;20501;-69
2021/12/11 02:26:50;;;;;;;12.77;8.20;;;-0.60;99.90;;;;;;4956302;28;20470;-69
2021/12/11 02:29:24;;;;;;;7.83;7.10;;;-0.50;99.90;;;;;;4966810;28;20557;-70
2021/12/11 02:31:55;;;;;;;12.67;8.00;;;-0.50;99.90;;;;;;4966525;28;20433;-71
2021/12/11 02:34:33;;;;;;;7.10;6.10;;;-0.60;99.90;;;;;;4967991;28;20982;-69
2021/12/11 02:37:07;;;;;;;15.40;12.23;;;-0.60;99.90;;;;;;4965863;28;20492;-68
2021/12/11 02:39:40;;;;;;;9.03;8.30;;;-0.60;99.90;;;;;;4963024;28;21044;-70
2021/12/11 02:42:14;;;;;;;6.93;6.33;;;-0.60;99.90;;;;;;4966506;28;20616;-68
2021/12/11 02:44:45;;;;;;;11.23;8.13;;;-0.70;99.90;;;;;;4967972;28;20509;-69
2021/12/11 02:47:15;;;;;;;10.90;5.67;;;-0.70;99.90;;;;;;4967717;28;21226;-68
2021/12/11 02:49:50;;;;;;;7.77;6.33;;;-0.60;99.90;;;;;;4969173;28;20793;-69
2021/12/11 02:52:22;;;;;;;11.17;6.43;;;-0.60;99.90;;;;;;4961354;28;20525;-71
2021/12/11 02:54:56;;;;;;;7.27;5.67;;;-0.50;99.90;;;;;;4968751;28;20810;-70
2021/12/11 02:57:27;;;;;;;13.70;7.93;;;-0.60;99.90;;;;;;4964183;28;20439;-70
2021/12/11 02:59:55;;;;;;;10.10;4.10;;;-0.50;99.90;;;;;;4967828;28;20470;-69
2021/12/11 03:02:25;;;;;;;7.37;5.30;;;-0.40;99.90;;;;;;4963358;28;20804;-71
2021/12/11 03:04:58;;;;;;;10.70;5.80;;;-0.30;99.90;;;;;;4956963;28;20442;-69
2021/12/11 03:07:35;;;;;;;10.37;6.60;;;-0.30;99.90;;;;;;4965407;28;20454;-71
2021/12/11 03:10:06;;;;;;;10.83;8.03;;;-0.30;99.90;;;;;;4961729;28;20508;-69
2021/12/11 03:12:34;;;;;;;7.80;5.80;;;-0.40;99.90;;;;;;4971169;28;20530;-71
2021/12/11 03:15:01;;;;;;;10.87;7.10;;;-0.40;99.90;;;;;;4966224;28;21542;-68
2021/12/11 03:17:28;;;;;;;7.77;7.03;;;-0.40;99.90;;;;;;4963701;28;20509;-70
2021/12/11 03:19:55;;;;;;;10.20;8.30;;;-0.40;99.90;;;;;;4962819;28;20506;-70
2021/12/11 03:22:27;;;;;;;6.50;5.97;;;-0.40;99.90;;;;;;4964902;28;20923;-69
2021/12/11 03:24:56;;;;;;;11.40;6.63;;;-0.40;99.90;;;;;;4964526;28;20445;-71
2021/12/11 03:27:23;;;;;;;6.33;5.73;;;-0.40;99.90;;;;;;4962466;28;20432;-70
2021/12/11 03:29:50;;;;;;;7.47;5.90;;;-0.40;99.90;;;;;;4968709;28;20455;-71
2021/12/11 03:32:18;;;;;;;9.93;5.30;;;-0.40;99.90;;;;;;4969974;28;20550;-71
2021/12/11 03:34:47;;;;;;;13.17;8.90;;;-0.40;99.90;;;;;;4966712;28;20559;-69
2021/12/11 03:37:17;;;;;;;9.47;7.23;;;-0.30;99.90;;;;;;4962729;28;20564;-70
2021/12/11 03:39:47;;;;;;;10.37;7.20;;;-0.40;99.90;;;;;;4951845;28;20661;-69
2021/12/11 03:42:20;;;;;;;9.93;5.70;;;-0.40;99.90;;;;;;4959867;28;20545;-69
2021/12/11 03:44:48;;;;;;;6.40;5.67;;;-0.40;99.90;;;;;;4958647;28;20548;-71
2021/12/11 03:47:20;;;;;;;7.10;6.50;;;-0.40;99.90;;;;;;4962479;28;20545;-70
2021/12/11 03:49:47;;;;;;;10.43;6.60;;;-0.30;99.90;;;;;;4969316;28;20961;-70
2021/12/11 03:52:17;;;;;;;6.93;6.10;;;-0.30;99.90;;;;;;4966552;28;21066;-71
2021/12/11 03:54:47;;;;;;;5.93;4.27;;;-0.30;99.90;;;;;;4963282;28;20494;-68
2021/12/11 03:57:18;;;;;;;4.13;3.83;;;-0.30;99.90;;;;;;4959448;28;20584;-69
2021/12/11 03:59:48;;;;;;;8.13;6.80;;;-0.20;99.90;;;;;;4963255;28;20886;-70
2021/12/11 04:02:19;;;;;;;7.80;5.77;;;0.00;99.90;;;;;;4967517;28;20538;-70
2021/12/11 04:04:50;;;;;;;7.40;5.33;;;0.00;99.90;;;;;;4958454;28;21023;-70
2021/12/11 04:07:19;;;;;;;4.47;3.90;;;0.00;99.90;;;;;;4955530;28;20463;-70
2021/12/11 04:09:47;;;;;;;5.40;4.50;;;0.10;99.90;;;;;;4966830;28;20473;-70
2021/12/11 04:12:17;;;;;;;12.67;5.83;;;0.10;99.90;;;;;;4963900;28;20463;-69
2021/12/11 04:14:48;;;;;;;11.70;7.37;;;0.10;99.90;;;;;;4961315;28;20581;-70
2021/12/11 04:17:18;;;;;;;6.90;6.20;;;0.10;99.90;;;;;;4978215;28;20500;-70
2021/12/11 04:19:47;;;;;;;7.80;6.53;;;0.20;99.90;;;;;;4946734;28;20476;-69
2021/12/11 04:22:14;;;;;;;4.90;4.47;;;0.20;99.90;;;;;;4961555;28;20600;-70
2021/12/11 04:24:46;;;;;;;8.20;7.07;;;0.10;99.90;;;;;;4962918;28;20493;-70
2021/12/11 04:27:18;;;;;;;8.67;5.87;;;0.20;99.90;;;;;;4958221;28;20454;-70
2021/12/11 04:29:47;;;;;;;6.90;5.00;;;0.20;99.90;;;;;;4959606;28;21136;-69
2021/12/11 04:32:16;;;;;;;10.57;7.90;;;0.30;99.90;;;;;;4958905;28;23699;-70
2021/12/11 04:34:43;;;;;;;23.23;9.50;;;0.30;99.90;;;;;;4958685;28;20573;-70
2021/12/11 04:37:17;;;;;;;11.50;8.73;;;0.30;99.90;;;;;;4958071;28;21054;-69
2021/12/11 04:39:48;;;;;;;9.40;7.97;;;0.30;99.90;;;;;;4980084;28;20473;-71
2021/12/11 04:42:28;;;;;;;7.53;5.17;;;0.30;99.90;;;;;;4968723;28;20437;-71
2021/12/11 04:44:56;;;;;;;9.07;5.47;;;0.40;99.90;;;;;;4963431;28;20450;-69
2021/12/11 04:47:33;;;;;;;13.77;8.10;;;0.30;99.90;;;;;;4961791;28;20446;-69
2021/12/11 04:50:06;;;;;;;8.10;4.90;;;0.30;99.90;;;;;;4963079;28;20440;-69
2021/12/11 04:52:45;;;;;;;6.70;6.00;;;0.30;99.90;;;;;;4973418;28;20490;-71
2021/12/11 04:55:32;;;;;;;10.90;6.43;;;0.30;99.90;;;;;;4962306;28;21058;-69
2021/12/11 04:58:13;;;;;;;8.70;4.67;;;0.30;99.90;;;;;;4957358;28;20472;-69
2021/12/11 05:00:54;;;;;;;13.63;5.77;;;0.30;99.90;;;;;;4961115;28;20556;-69
2021/12/11 05:06:29;;;;;;;12.27;5.83;;;0.30;99.90;;;;;;4960063;28;21049;-70
2021/12/11 05:11:46;;;;;;;8.47;6.03;;;0.30;99.90;;;;;;4961075;28;20447;-69
2021/12/11 05:14:17;;;;;;;10.97;6.53;;;0.40;99.90;;;;;;4960814;28;21019;-70
2021/12/11 05:16:44;;;;;;;11.53;8.80;;;0.50;99.90;;;;;;4964923;28;20984;-70
2021/12/11 05:19:12;;;;;;;12.93;7.67;;;0.60;99.90;;;;;;4966168;28;20566;-71
2021/12/11 05:21:40;;;;;;;14.80;6.50;;;0.70;99.90;;;;;;4962803;28;20520;-70
2021/12/11 05:24:08;;;;;;;18.47;9.20;;;0.80;99.90;;;;;;4966827;28;20485;-72
2021/12/11 05:26:36;;;;;;;9.33;7.10;;;0.70;99.90;;;;;;4960617;28;20438;-70
2021/12/11 05:29:04;;;;;;;16.40;6.37;;;0.70;99.90;;;;;;4959337;28;20442;-70
2021/12/11 05:31:32;;;;;;;13.47;7.63;;;0.70;99.90;;;;;;4959659;28;20861;-69
2021/12/11 05:33:59;;;;;;;22.10;11.20;;;0.60;99.90;;;;;;4963028;28;20573;-70
2021/12/11 05:36:29;;;;;;;20.30;8.37;;;0.70;99.90;;;;;;4962778;28;20502;-69
2021/12/11 05:38:56;;;;;;;22.37;9.83;;;0.70;99.90;;;;;;4962462;28;20479;-69
2021/12/11 05:41:24;;;;;;;12.50;5.63;;;0.70;99.90;;;;;;4969593;28;20469;-71
2021/12/11 05:43:53;;;;;;;12.80;5.70;;;0.80;99.90;;;;;;4967682;28;20461;-70
2021/12/11 05:46:20;;;;;;;18.13;8.00;;;0.80;99.90;;;;;;4966639;28;20474;-70
2021/12/11 05:48:51;;;;;;;9.30;7.33;;;0.70;99.90;;;;;;4967926;28;20449;-70
2021/12/11 05:51:21;;;;;;;11.97;7.13;;;0.70;99.90;;;;;;4966704;28;20437;-72
2021/12/11 05:53:50;;;;;;;17.03;9.17;;;0.70;99.90;;;;;;4964627;28;20493;-70
2021/12/11 05:56:18;;;;;;;15.03;7.60;;;0.80;99.90;;;;;;4963650;28;20489;-70
2021/12/11 05:58:56;;;;;;;8.93;6.37;;;0.70;99.90;;;;;;4963174;28;20548;-70
2021/12/11 06:01:31;;;;;;;11.97;6.37;;;0.80;99.90;;;;;;4967383;28;20466;-69
2021/12/11 06:04:01;;;;;;;11.87;8.00;;;0.80;99.90;;;;;;4970941;28;20690;-69
2021/12/11 06:06:28;;;;;;;18.83;8.13;;;0.70;99.90;;;;;;4952863;28;20535;-70
2021/12/11 06:08:55;;;;;;;13.60;6.50;;;0.70;99.90;;;;;;4964438;28;20466;-69
2021/12/11 06:11:22;;;;;;;15.53;8.60;;;0.80;99.90;;;;;;4963889;28;20469;-71
2021/12/11 06:13:50;;;;;;;11.33;8.30;;;0.70;99.90;;;;;;4956432;28;20551;-68
2021/12/11 06:16:17;;;;;;;21.77;5.67;;;0.60;99.90;;;;;;4963611;28;20558;-69
2021/12/11 06:18:46;;;;;;;18.10;9.23;;;0.70;99.90;;;;;;4965951;28;20520;-70
2021/12/11 06:21:16;;;;;;;15.20;7.40;;;0.80;99.90;;;;;;4958814;28;20567;-70
2021/12/11 06:23:43;;;;;;;23.40;7.93;;;0.80;99.90;;;;;;4962823;28;21029;-67
2021/12/11 06:26:10;;;;;;;20.77;9.07;;;0.90;99.90;;;;;;4963499;28;20463;-69
2021/12/11 06:28:37;;;;;;;9.37;7.10;;;1.00;99.90;;;;;;4969678;28;20957;-69
2021/12/11 06:31:06;;;;;;;17.97;10.90;;;1.10;99.90;;;;;;4971319;28;20447;-69
2021/12/11 06:33:35;;;;;;;10.27;6.93;;;1.00;99.90;;;;;;4965138;28;20488;-69
2021/12/11 06:36:05;;;;;;;25.77;6.57;;;1.10;99.90;;;;;;4964018;28;20464;-70
2021/12/11 06:38:36;;;;;;;16.47;5.90;;;1.10;99.90;;;;;;4966143;28;20666;-69
2021/12/11 06:41:05;;;;;;;13.27;7.90;;;1.10;99.90;;;;;;4980665;28;20946;-69
2021/12/11 06:43:33;;;;;;;8.73;5.40;;;1.00;99.90;;;;;;4970994;28;20540;-70
2021/12/11 06:46:01;;;;;;;14.60;6.50;;;1.00;99.90;;;;;;4962858;28;20458;-71
2021/12/11 06:48:28;;;;;;;15.63;7.43;;;1.10;99.90;;;;;;4961553;28;20457;-71
2021/12/11 06:50:56;;;;;;;14.53;8.87;;;0.90;99.90;;;;;;4951318;28;20470;-71
2021/12/11 06:53:27;;;;;;;6.87;4.03;;;1.00;99.90;;;;;;4954334;28;20886;-70
2021/12/11 06:55:56;;;;;;;21.03;9.40;;;1.00;99.90;;;;;;4970508;28;20490;-71
2021/12/11 06:58:23;;;;;;;14.80;6.50;;;1.00;99.90;;;;;;4960310;28;21189;-69
2021/12/11 07:00:50;;;;;;;18.23;11.43;;;0.90;99.90;;;;;;4956446;28;20557;-70
2021/12/11 07:03:17;;;;;;;17.77;7.83;;;1.00;99.90;;;;;;4960018;28;21129;-70
2021/12/11 07:05:44;;;;;;;26.57;11.30;;;1.10;99.90;;;;;;4967154;28;20558;-70
2021/12/11 07:08:13;;;;;;;15.83;10.60;;;1.10;99.90;;;;;;4961402;28;20460;-70
2021/12/11 07:10:40;;;;;;;15.70;8.30;;;1.30;99.90;;;;;;4973449;28;20832;-71
2021/12/11 07:13:10;;;;;;;20.03;8.07;;;1.30;99.90;;;;;;4972548;28;20477;-70
2021/12/11 07:15:37;;;;;;;22.90;8.77;;;1.40;99.90;;;;;;4974404;28;20464;-70
2021/12/11 07:18:05;;;;;;;23.13;10.67;;;1.30;99.90;;;;;;4974361;28;20781;-70
2021/12/11 07:20:33;;;;;;;8.13;7.33;;;1.40;99.90;;;;;;4974118;28;20990;-71
2021/12/11 07:23:01;;;;;;;19.30;8.70;;;1.50;99.90;;;;;;4971695;28;20562;-70
2021/12/11 07:25:32;;;;;;;22.67;10.77;;;1.60;99.90;;;;;;4972374;28;20533;-70
2021/12/11 07:28:03;;;;;;;22.70;11.07;;;1.60;99.90;;;;;;4974169;28;20422;-72
2021/12/11 07:30:32;;;;;;;21.67;11.50;;;1.80;99.90;;;;;;4975413;28;20569;-72
2021/12/11 07:33:01;;;;;;;35.90;12.50;;;1.90;99.90;;;;;;4980410;28;21043;-69
2021/12/11 07:35:29;;;;;;;21.50;8.57;;;1.90;99.90;;;;;;4963397;28;20866;-70
2021/12/11 07:37:56;;;;;;;32.97;14.87;;;1.80;99.90;;;;;;4974155;28;20474;-71
2021/12/11 07:40:27;;;;;;;24.13;9.97;;;1.90;99.90;;;;;;4973061;28;21090;-69
2021/12/11 07:42:55;;;;;;;13.37;12.07;;;1.80;99.90;;;;;;4973192;28;20485;-70
2021/12/11 07:45:24;;;;;;;25.80;10.50;;;1.90;99.90;;;;;;4975726;28;20467;-69
2021/12/11 07:47:52;;;;;;;24.67;11.07;;;2.00;99.90;;;;;;4976922;28;20431;-71
2021/12/11 07:50:20;;;;;;;5.40;4.07;;;2.00;99.90;;;;;;4972571;28;21393;-68
2021/12/11 07:52:47;;;;;;;42.40;10.57;;;2.00;99.90;;;;;;4975161;28;20914;-69
2021/12/11 07:55:15;;;;;;;25.83;10.63;;;2.00;99.90;;;;;;4970306;28;20432;-69
2021/12/11 07:57:43;;;;;;;22.17;9.33;;;2.00;99.90;;;;;;4972990;28;20549;-69
2021/12/11 08:00:14;;;;;;;28.43;8.23;;;2.20;99.90;;;;;;4974938;28;20494;-71
2021/12/11 08:02:41;;;;;;;18.83;7.50;;;2.20;99.90;;;;;;4976723;28;20566;-70
2021/12/11 08:05:11;;;;;;;15.57;9.27;;;2.20;99.90;;;;;;4971666;28;20442;-69
2021/12/11 08:07:38;;;;;;;15.40;8.50;;;2.20;99.90;;;;;;4973866;28;20492;-69
2021/12/11 08:10:06;;;;;;;32.13;11.07;;;2.20;99.90;;;;;;4974219;28;20547;-70
2021/12/11 08:12:34;;;;;;;26.83;10.83;;;2.30;99.90;;;;;;4975961;28;20955;-71
2021/12/11 08:15:01;;;;;;;17.07;9.23;;;2.30;99.90;;;;;;4960930;28;20470;-70
2021/12/11 08:17:28;;;;;;;21.97;10.27;;;2.50;99.90;;;;;;4972182;28;20500;-70
2021/12/11 08:19:54;;;;;;;29.70;12.27;;;2.50;99.90;;;;;;4970820;28;20517;-69
2021/12/11 08:22:23;;;;;;;55.17;13.40;;;2.20;99.90;;;;;;4971626;28;20803;-68
2021/12/11 08:24:50;;;;;;;29.10;14.20;;;2.40;99.90;;;;;;4968291;28;20541;-71
2021/12/11 08:27:20;;;;;;;37.97;11.87;;;2.40;99.90;;;;;;4972388;28;20481;-70
2021/12/11 08:29:49;;;;;;;39.73;11.03;;;2.50;99.90;;;;;;4974478;28;20480;-70
2021/12/11 08:32:18;;;;;;;29.10;10.20;;;2.60;99.90;;;;;;4974670;28;20798;-69
2021/12/11 08:34:45;;;;;;;23.53;10.40;;;2.70;99.90;;;;;;4971179;28;20457;-68
2021/12/11 08:37:15;;;;;;;26.03;13.00;;;2.80;99.90;;;;;;4975627;28;20552;-69
2021/12/11 08:39:44;;;;;;;35.07;11.87;;;2.70;99.90;;;;;;4980397;28;20473;-68
2021/12/11 08:42:14;;;;;;;28.30;10.63;;;2.70;99.90;;;;;;4974515;28;20987;-70
2021/12/11 08:44:50;;;;;;;25.00;11.93;;;2.60;99.90;;;;;;4970384;28;20556;-69
2021/12/11 08:47:18;;;;;;;22.90;10.70;;;2.70;99.90;;;;;;4971403;28;20535;-68
2021/12/11 08:49:45;;;;;;;34.97;14.63;;;2.80;99.90;;;;;;4975281;28;21018;-68
2021/12/11 08:52:18;;;;;;;54.50;11.20;;;2.80;99.90;;;;;;4973872;28;20480;-69
2021/12/11 08:54:48;;;;;;;31.43;11.73;;;2.90;99.90;;;;;;4958073;28;21068;-68
2021/12/11 08:57:19;;;;;;;29.90;12.80;;;2.80;99.90;;;;;;4976734;28;20491;-70
2021/12/11 08:59:50;;;;;;;41.13;12.70;;;2.80;99.90;;;;;;4971971;28;20438;-68
2021/12/11 09:02:20;;;;;;;30.17;11.17;;;2.90;99.90;;;;;;4974080;28;20550;-69
2021/12/11 09:04:53;;;;;;;23.43;10.40;;;2.90;99.90;;;;;;4972829;28;20432;-69
2021/12/11 09:07:31;;;;;;;29.33;12.40;;;2.80;99.90;;;;;;4973263;28;20433;-70
2021/12/11 09:10:05;;;;;;;24.97;12.83;;;2.90;99.90;;;;;;4971561;28;21343;-69
2021/12/11 09:12:36;;;;;;;20.50;12.03;;;3.00;99.90;;;;;;4970530;28;20864;-71
2021/12/11 09:15:10;;;;;;;13.47;6.57;;;2.90;99.90;;;;;;4973204;28;20548;-71
2021/12/11 09:17:42;;;;;;;31.07;10.37;;;2.80;99.90;;;;;;4974587;28;20460;-70
2021/12/11 09:20:15;;;;;;;27.10;10.17;;;2.70;99.90;;;;;;4971728;28;20465;-70
2021/12/11 09:22:46;;;;;;;34.60;14.03;;;2.90;99.90;;;;;;4972173;28;20602;-69
2021/12/11 09:25:19;;;;;;;28.23;11.83;;;3.20;99.90;;;;;;4957646;28;20601;-69
2021/12/11 09:27:52;;;;;;;35.17;15.17;;;3.20;99.90;;;;;;4972285;28;20438;-69
2021/12/11 09:30:24;;;;;;;34.90;11.17;;;3.30;99.90;;;;;;4974247;28;21148;-70
2021/12/11 09:32:54;;;;;;;31.33;11.93;;;3.60;99.90;;;;;;4972217;28;20852;-68
2021/12/11 09:35:25;;;;;;;30.00;10.63;;;3.60;99.90;;;;;;4969668;28;21221;-69
2021/12/11 09:37:57;;;;;;;30.33;14.57;;;3.50;99.90;;;;;;4972354;28;20578;-69
2021/12/11 09:40:50;;;;;;;35.57;12.07;;;3.50;99.90;;;;;;4972236;28;20528;-68
2021/12/11 09:43:29;;;;;;;36.77;12.23;;;3.60;99.90;;;;;;4978105;28;20457;-70
2021/12/11 09:45:57;;;;;;;22.27;10.80;;;3.50;99.90;;;;;;4973821;28;20937;-70
2021/12/11 09:48:24;;;;;;;30.67;11.73;;;3.50;99.90;;;;;;4972165;28;20462;-70
2021/12/11 09:50:58;;;;;;;28.87;11.07;;;3.40;99.90;;;;;;4972383;28;20463;-70
2021/12/11 09:53:28;;;;;;;22.07;10.70;;;3.40;99.90;;;;;;4969925;28;20453;-68
2021/12/11 09:55:56;;;;;;;22.33;8.20;;;3.40;99.90;;;;;;4967605;28;20465;-69
2021/12/11 09:58:28;;;;;;;26.40;12.50;;;3.60;99.90;;;;;;4974272;28;20465;-70
2021/12/11 10:00:57;;;;;;;30.83;11.43;;;3.70;99.90;;;;;;4971512;28;20886;-69
2021/12/11 10:03:27;;;;;;;22.17;9.43;;;3.80;99.90;;;;;;4974364;28;20461;-70
2021/12/11 10:06:00;;;;;;;31.50;9.40;;;4.00;99.90;;;;;;4968286;28;20462;-70
2021/12/11 10:08:31;;;;;;;29.23;11.97;;;4.10;99.90;;;;;;4971044;28;20947;-71
2021/12/11 10:11:09;;;;;;;25.83;10.60;;;4.00;99.90;;;;;;4971728;28;20547;-70
2021/12/11 10:13:42;;;;;;;34.10;11.23;;;3.90;99.90;;;;;;4976043;28;21184;-72
2021/12/11 10:16:11;;;;;;;33.07;13.27;;;4.00;99.90;;;;;;4973479;28;20997;-71
2021/12/11 10:18:38;;;;;;;25.50;11.50;;;4.10;99.90;;;;;;4975961;28;20474;-71
2021/12/11 10:21:09;;;;;;;32.60;11.40;;;4.20;99.90;;;;;;4974554;28;20448;-70
2021/12/11 10:23:38;;;;;;;16.80;9.00;;;4.40;99.90;;;;;;4972582;28;20860;-72
2021/12/11 10:26:10;;;;;;;17.20;10.70;;;4.40;99.90;;;;;;4965495;28;20455;-71
2021/12/11 10:28:42;;;;;;;28.33;13.87;;;4.50;99.90;;;;;;4975090;28;20775;-69
2021/12/11 10:31:15;;;;;;;38.17;12.97;;;4.70;99.90;;;;;;4977028;28;20508;-69
2021/12/11 10:33:43;;;;;;;21.73;9.07;;;4.80;99.90;;;;;;4976345;28;21065;-68
2021/12/11 10:36:12;;;;;;;21.23;11.97;;;4.70;99.90;;;;;;4976477;28;20464;-70
2021/12/11 10:38:40;;;;;;;36.27;11.87;;;4.90;99.90;;;;;;4978042;28;20444;-71
2021/12/11 10:41:10;;;;;;;19.37;10.83;;;5.00;99.90;;;;;;4976986;28;20849;-70
2021/12/11 10:43:42;;;;;;;28.70;10.03;;;5.10;99.90;;;;;;4974724;28;20544;-69
2021/12/11 10:46:13;;;;;;;29.60;12.13;;;5.10;99.90;;;;;;4979089;28;20429;-70
2021/12/11 10:48:43;;;;;;;30.67;10.77;;;5.00;99.90;;;;;;4983502;28;20440;-72
2021/12/11 10:51:15;;;;;;;26.43;10.07;;;5.00;99.90;;;;;;4976171;28;20471;-70
2021/12/11 10:53:46;;;;;;;45.23;13.53;;;5.00;99.90;;;;;;4976172;28;21068;-71
2021/12/11 10:56:14;;;;;;;26.63;11.00;;;5.20;99.90;;;;;;4974410;28;20525;-71
2021/12/11 10:58:53;;;;;;;25.20;10.47;;;5.30;99.90;;;;;;4974307;28;20777;-71
2021/12/11 11:01:25;;;;;;;24.20;13.13;;;5.40;99.90;;;;;;4975995;28;20429;-71
2021/12/11 11:03:56;;;;;;;19.93;8.30;;;5.40;99.90;;;;;;4965754;28;20835;-69
2021/12/11 11:06:23;;;;;;;26.70;10.60;;;5.40;99.90;;;;;;4971859;28;20442;-70
2021/12/11 11:08:50;;;;;;;27.87;11.07;;;5.50;99.90;;;;;;4973055;28;20438;-71
2021/12/11 11:11:31;;;;;;;26.57;11.60;;;5.40;99.90;;;;;;4973829;28;20466;-69
2021/12/11 11:14:01;;;;;;;22.00;13.97;;;5.50;99.90;;;;;;4972884;28;20453;-69
2021/12/11 11:16:29;;;;;;;25.47;10.57;;;5.60;99.90;;;;;;4974029;28;20460;-70
2021/12/11 11:18:56;;;;;;;21.50;10.07;;;5.70;99.90;;;;;;4974335;28;20495;-71
2021/12/11 11:21:27;;;;;;;22.90;9.53;;;5.70;99.90;;;;;;4974856;28;20487;-70
2021/12/11 11:23:55;;;;;;;29.57;10.83;;;5.70;99.90;;;;;;4974212;28;20514;-69
2021/12/11 11:26:26;;;;;;;20.97;9.27;;;5.60;99.90;;;;;;4972764;28;20524;-72
2021/12/11 11:28:54;;;;;;;37.70;9.17;;;5.20;99.90;;;;;;4975580;28;20534;-68
2021/12/11 11:31:26;;;;;;;26.13;10.10;;;5.20;99.90;;;;;;4974557;28;20437;-71
2021/12/11 11:33:55;;;;;;;26.30;11.43;;;5.20;99.90;;;;;;4975856;28;20471;-70
2021/12/11 11:36:26;;;;;;;25.20;10.60;;;5.40;99.90;;;;;;4972897;28;20881;-70
2021/12/11 11:38:58;;;;;;;22.20;9.67;;;5.60;99.90;;;;;;4973217;28;20519;-69
2021/12/11 11:41:27;;;;;;;20.27;9.10;;;5.60;99.90;;;;;;4960598;28;20532;-72
2021/12/11 11:43:55;;;;;;;30.47;13.10;;;5.60;99.90;;;;;;4974508;28;20903;-70
2021/12/11 11:46:24;;;;;;;26.00;11.77;;;5.60;99.90;;;;;;4976408;28;20442;-69
2021/12/11 11:48:53;;;;;;;35.00;15.40;;;5.70;99.90;;;;;;4974722;28;20893;-70
2021/12/11 11:51:25;;;;;;;23.83;11.60;;;5.60;99.90;;;;;;4975553;28;20501;-69
2021/12/11 11:53:53;;;;;;;23.97;9.87;;;5.50;99.90;;;;;;4978054;28;20456;-69
2021/12/11 11:56:24;;;;;;;30.50;10.90;;;5.60;99.90;;;;;;4976948;28;20508;-69
2021/12/11 11:58:52;;;;;;;31.00;11.93;;;5.70;99.90;;;;;;4970605;28;20570;-70
2021/12/11 12:01:24;;;;;;;25.90;11.33;;;5.70;99.90;;;;;;4973231;28;20474;-69
2021/12/11 12:03:52;;;;;;;30.13;14.10;;;5.70;99.90;;;;;;4971548;28;20539;-71
2021/12/11 12:06:25;;;;;;;34.13;14.23;;;5.70;99.90;;;;;;4974952;28;20438;-69
2021/12/11 12:08:54;;;;;;;25.83;13.17;;;5.70;99.90;;;;;;4974868;28;20440;-70
2021/12/11 12:11:21;;;;;;;27.83;11.90;;;5.80;99.90;;;;;;4967819;28;20472;-69
2021/12/11 12:13:49;;;;;;;32.67;11.73;;;5.80;99.90;;;;;;4975537;28;20511;-70
2021/12/11 12:16:16;;;;;;;28.73;13.70;;;5.80;99.90;;;;;;4974415;28;20467;-70
2021/12/11 12:18:45;;;;;;;25.00;11.47;;;5.80;99.90;;;;;;4976022;28;20625;-70
2021/12/11 12:21:15;;;;;;;23.97;9.53;;;5.80;99.90;;;;;;4973181;28;20590;-69
2021/12/11 12:23:43;;;;;;;21.97;9.43;;;5.80;99.90;;;;;;4972353;28;20472;-70
2021/12/11 12:26:13;;;;;;;13.50;9.67;;;5.80;99.90;;;;;;4971897;28;20869;-71
2021/12/11 12:28:41;;;;;;;30.73;12.33;;;5.80;99.90;;;;;;4975879;28;20483;-71
2021/12/11 12:31:13;;;;;;;32.57;12.07;;;5.80;99.90;;;;;;4975143;28;20851;-70
2021/12/11 12:33:43;;;;;;;21.73;12.33;;;5.80;99.90;;;;;;4974298;28;20639;-70
2021/12/11 12:36:12;;;;;;;32.80;10.90;;;5.60;99.90;;;;;;4973754;28;20457;-69
2021/12/11 12:38:40;;;;;;;21.47;8.83;;;5.50;99.90;;;;;;4974932;28;20482;-69
2021/12/11 12:41:13;;;;;;;24.20;11.33;;;5.50;99.90;;;;;;4973729;28;20522;-70
2021/12/11 12:44:16;;;;;;;35.13;13.40;;;5.50;99.90;;;;;;4971326;28;20572;-68
2021/12/11 12:46:45;;;;;;;24.67;10.60;;;5.70;99.90;;;;;;4975728;28;20425;-69
2021/12/11 12:49:12;;;;;;;31.80;11.40;;;5.90;99.90;;;;;;4974718;28;20611;-70
2021/12/11 12:51:42;;;;;;;22.50;10.83;;;5.90;99.90;;;;;;4972191;28;20530;-70
2021/12/11 12:54:12;;;;;;;20.03;9.60;;;5.90;99.90;;;;;;4973848;28;20482;-71
2021/12/11 12:56:43;;;;;;;19.03;10.77;;;5.80;99.90;;;;;;4977521;28;20964;-70
2021/12/11 12:59:12;;;;;;;26.10;11.87;;;5.80;99.90;;;;;;4976365;28;20465;-70
2021/12/11 13:01:43;;;;;;;32.70;12.93;;;5.80;99.90;;;;;;4972459;28;20440;-69
2021/12/11 13:04:14;;;;;;;18.40;8.33;;;5.80;99.90;;;;;;4972186;28;20869;-70